X  Κλείσε Στοιχεία αεροπορικών μετεωρολογικών δεδομένων METAR     LYNI Nis Airport
θερμοκρασία
18°C θερμοκρασία
9°C Σημείο δρόσου
56% Υγρασία



Ανεμος
1 M/S
3 MPH
5 KM/H
3 KTS



350°
V
Τρέχουσες συνθήκες

Σαφή Σαφή
πίεση 1017.92 (hPa) - 30.06 (inHg)
Ορατότητα 6.2 (μίλι) - 10 (km)
Aεροδρόμιο
Κωδικός αεροδρομίου LYNI

Τοποθεσία: Nis Airport
Απόσταση: 63 (km)

Metar:
LYNI 021630Z 35003KT 320V020 CAVOK 18/09 Q1018 NOSIG

ώρα: 02-10-2022 18:30 CEST